sensor_id;sensor_type;location;lat;lon;timestamp;temperature;humidity
5027;DHT22;2532;52.480;13.354;2023-08-20T04:01:01;25.10;99.90
5027;DHT22;2532;52.480;13.354;2023-08-20T04:03:29;25.10;99.90
5027;DHT22;2532;52.480;13.354;2023-08-20T04:05:56;25.10;99.90
5027;DHT22;2532;52.480;13.354;2023-08-20T04:08:23;25.10;99.90
5027;DHT22;2532;52.480;13.354;2023-08-20T04:10:49;25.00;99.90
5027;DHT22;2532;52.480;13.354;2023-08-20T04:13:16;25.00;99.90
5027;DHT22;2532;52.480;13.354;2023-08-20T04:15:44;25.00;99.90
5027;DHT22;2532;52.480;13.354;2023-08-20T04:18:12;24.90;99.90
5027;DHT22;2532;52.480;13.354;2023-08-20T04:20:39;24.90;99.90
5027;DHT22;2532;52.480;13.354;2023-08-20T04:23:06;24.90;99.90
5027;DHT22;2532;52.480;13.354;2023-08-20T04:25:33;24.80;99.90
5027;DHT22;2532;52.480;13.354;2023-08-20T04:28:00;24.80;99.90
5027;DHT22;2532;52.480;13.354;2023-08-20T04:30:27;24.80;99.90
5027;DHT22;2532;52.480;13.354;2023-08-20T04:32:54;24.70;99.90
5027;DHT22;2532;52.480;13.354;2023-08-20T04:35:22;24.70;99.90
5027;DHT22;2532;52.480;13.354;2023-08-20T04:37:49;24.60;99.90
5027;DHT22;2532;52.480;13.354;2023-08-20T04:40:16;24.60;99.90
5027;DHT22;2532;52.480;13.354;2023-08-20T04:42:43;24.50;99.90
5027;DHT22;2532;52.480;13.354;2023-08-20T04:45:10;24.50;99.90
5027;DHT22;2532;52.480;13.354;2023-08-20T04:47:37;24.50;99.90
5027;DHT22;2532;52.480;13.354;2023-08-20T04:50:05;24.40;99.90
5027;DHT22;2532;52.480;13.354;2023-08-20T04:52:34;24.40;99.90
5027;DHT22;2532;52.480;13.354;2023-08-20T04:55:01;24.40;99.90
5027;DHT22;2532;52.480;13.354;2023-08-20T04:57:28;24.40;99.90
5027;DHT22;2532;52.480;13.354;2023-08-20T04:59:55;24.30;99.90
5027;DHT22;2532;52.480;13.354;2023-08-20T05:02:22;24.30;99.90
5027;DHT22;2532;52.480;13.354;2023-08-20T05:04:49;24.30;99.90
5027;DHT22;2532;52.480;13.354;2023-08-20T05:07:16;24.30;99.90
5027;DHT22;2532;52.480;13.354;2023-08-20T05:09:44;24.20;99.90
5027;DHT22;2532;52.480;13.354;2023-08-20T05:12:11;24.20;99.90
5027;DHT22;2532;52.480;13.354;2023-08-20T05:14:38;24.20;99.90
5027;DHT22;2532;52.480;13.354;2023-08-20T05:17:05;24.20;99.90
5027;DHT22;2532;52.480;13.354;2023-08-20T05:19:32;24.20;99.90
5027;DHT22;2532;52.480;13.354;2023-08-20T05:21:58;24.20;99.90
5027;DHT22;2532;52.480;13.354;2023-08-20T05:24:25;24.20;99.90
5027;DHT22;2532;52.480;13.354;2023-08-20T05:27:08;24.20;99.90
5027;DHT22;2532;52.480;13.354;2023-08-20T05:29:36;24.20;99.90
5027;DHT22;2532;52.480;13.354;2023-08-20T05:32:04;24.20;99.90
5027;DHT22;2532;52.480;13.354;2023-08-20T05:34:31;24.30;99.90
5027;DHT22;2532;52.480;13.354;2023-08-20T05:36:58;24.30;99.90
5027;DHT22;2532;52.480;13.354;2023-08-20T05:39:25;24.40;99.90
5027;DHT22;2532;52.480;13.354;2023-08-20T05:41:52;24.40;99.90
5027;DHT22;2532;52.480;13.354;2023-08-20T05:44:20;24.30;99.90
5027;DHT22;2532;52.480;13.354;2023-08-20T05:46:48;24.40;99.90
5027;DHT22;2532;52.480;13.354;2023-08-20T05:49:15;24.30;99.90
5027;DHT22;2532;52.480;13.354;2023-08-20T05:51:42;24.40;99.90
5027;DHT22;2532;52.480;13.354;2023-08-20T05:54:09;24.30;99.90
5027;DHT22;2532;52.480;13.354;2023-08-20T05:56:36;24.30;99.90
5027;DHT22;2532;52.480;13.354;2023-08-20T05:59:03;24.40;99.90
5027;DHT22;2532;52.480;13.354;2023-08-20T06:01:31;24.40;99.90
5027;DHT22;2532;52.480;13.354;2023-08-20T06:03:58;24.40;99.90
5027;DHT22;2532;52.480;13.354;2023-08-20T06:06:26;24.50;99.90
5027;DHT22;2532;52.480;13.354;2023-08-20T06:08:53;24.50;99.90
5027;DHT22;2532;52.480;13.354;2023-08-20T06:11:20;24.50;99.90
5027;DHT22;2532;52.480;13.354;2023-08-20T06:13:47;24.50;99.90
5027;DHT22;2532;52.480;13.354;2023-08-20T06:16:14;24.50;99.90
5027;DHT22;2532;52.480;13.354;2023-08-20T06:18:42;24.50;99.90
5027;DHT22;2532;52.480;13.354;2023-08-20T06:21:09;24.50;99.90
5027;DHT22;2532;52.480;13.354;2023-08-20T06:23:36;24.50;99.90
5027;DHT22;2532;52.480;13.354;2023-08-20T06:26:03;24.40;99.90
5027;DHT22;2532;52.480;13.354;2023-08-20T06:28:30;24.40;99.90
5027;DHT22;2532;52.480;13.354;2023-08-20T06:30:57;24.50;99.90
5027;DHT22;2532;52.480;13.354;2023-08-20T06:33:23;24.50;99.90
5027;DHT22;2532;52.480;13.354;2023-08-20T06:35:52;24.60;99.90
5027;DHT22;2532;52.480;13.354;2023-08-20T06:38:18;24.60;99.90
5027;DHT22;2532;52.480;13.354;2023-08-20T06:40:45;24.60;99.90
5027;DHT22;2532;52.480;13.354;2023-08-20T06:43:13;24.60;99.90
5027;DHT22;2532;52.480;13.354;2023-08-20T06:45:40;24.60;99.90
5027;DHT22;2532;52.480;13.354;2023-08-20T06:48:06;24.60;99.90
5027;DHT22;2532;52.480;13.354;2023-08-20T06:50:33;24.50;99.90
5027;DHT22;2532;52.480;13.354;2023-08-20T06:53:02;24.60;99.90
5027;DHT22;2532;52.480;13.354;2023-08-20T06:55:28;24.60;99.90
5027;DHT22;2532;52.480;13.354;2023-08-20T06:57:55;24.60;99.90
5027;DHT22;2532;52.480;13.354;2023-08-20T07:00:22;24.60;99.90
5027;DHT22;2532;52.480;13.354;2023-08-20T07:02:49;24.60;99.90
5027;DHT22;2532;52.480;13.354;2023-08-20T07:05:16;24.60;99.90
5027;DHT22;2532;52.480;13.354;2023-08-20T07:07:45;24.60;99.90
5027;DHT22;2532;52.480;13.354;2023-08-20T07:10:13;24.60;99.90
5027;DHT22;2532;52.480;13.354;2023-08-20T07:12:40;24.60;99.90
5027;DHT22;2532;52.480;13.354;2023-08-20T07:15:07;24.50;99.90
5027;DHT22;2532;52.480;13.354;2023-08-20T07:17:35;24.50;99.90
5027;DHT22;2532;52.480;13.354;2023-08-20T07:20:02;24.50;99.90
5027;DHT22;2532;52.480;13.354;2023-08-20T07:22:29;24.50;99.90
5027;DHT22;2532;52.480;13.354;2023-08-20T07:24:56;24.50;99.90
5027;DHT22;2532;52.480;13.354;2023-08-20T07:27:24;24.60;99.90
5027;DHT22;2532;52.480;13.354;2023-08-20T07:29:51;24.60;99.90
5027;DHT22;2532;52.480;13.354;2023-08-20T07:32:18;24.60;99.90
5027;DHT22;2532;52.480;13.354;2023-08-20T07:34:45;24.70;99.90
5027;DHT22;2532;52.480;13.354;2023-08-20T07:37:12;24.60;99.90
5027;DHT22;2532;52.480;13.354;2023-08-20T07:39:38;24.70;99.90
5027;DHT22;2532;52.480;13.354;2023-08-20T07:42:06;24.60;99.90
5027;DHT22;2532;52.480;13.354;2023-08-20T07:44:34;24.60;99.90
5027;DHT22;2532;52.480;13.354;2023-08-20T07:47:01;24.60;99.90
5027;DHT22;2532;52.480;13.354;2023-08-20T07:49:28;24.70;99.90
5027;DHT22;2532;52.480;13.354;2023-08-20T07:51:55;24.60;99.90
5027;DHT22;2532;52.480;13.354;2023-08-20T07:54:22;24.60;99.90
5027;DHT22;2532;52.480;13.354;2023-08-20T07:56:49;24.60;99.90
5027;DHT22;2532;52.480;13.354;2023-08-20T07:59:15;24.60;99.90
5027;DHT22;2532;52.480;13.354;2023-08-20T08:01:44;24.60;99.90
5027;DHT22;2532;52.480;13.354;2023-08-20T08:04:10;24.60;99.90
5027;DHT22;2532;52.480;13.354;2023-08-20T08:06:37;24.60;99.90
5027;DHT22;2532;52.480;13.354;2023-08-20T08:09:21;24.80;99.90
5027;DHT22;2532;52.480;13.354;2023-08-20T08:11:48;24.80;99.90
5027;DHT22;2532;52.480;13.354;2023-08-20T08:14:15;24.80;99.90
5027;DHT22;2532;52.480;13.354;2023-08-20T08:16:46;24.90;99.90
5027;DHT22;2532;52.480;13.354;2023-08-20T08:19:13;25.00;99.90
5027;DHT22;2532;52.480;13.354;2023-08-20T08:21:40;25.10;99.90
5027;DHT22;2532;52.480;13.354;2023-08-20T08:24:07;25.20;99.90
5027;DHT22;2532;52.480;13.354;2023-08-20T08:26:34;25.30;99.90
5027;DHT22;2532;52.480;13.354;2023-08-20T08:29:02;25.30;99.90
5027;DHT22;2532;52.480;13.354;2023-08-20T08:31:29;25.40;99.90
5027;DHT22;2532;52.480;13.354;2023-08-20T08:33:57;25.40;99.90
5027;DHT22;2532;52.480;13.354;2023-08-20T08:36:24;25.50;99.90
5027;DHT22;2532;52.480;13.354;2023-08-20T08:38:51;25.50;99.90
5027;DHT22;2532;52.480;13.354;2023-08-20T08:41:21;25.60;99.90
5027;DHT22;2532;52.480;13.354;2023-08-20T08:43:49;25.60;99.90
5027;DHT22;2532;52.480;13.354;2023-08-20T08:46:16;25.80;99.90
5027;DHT22;2532;52.480;13.354;2023-08-20T08:48:45;25.90;99.90
5027;DHT22;2532;52.480;13.354;2023-08-20T08:51:14;26.00;99.90
5027;DHT22;2532;52.480;13.354;2023-08-20T08:53:42;26.10;99.90
5027;DHT22;2532;52.480;13.354;2023-08-20T08:56:10;26.30;99.90
5027;DHT22;2532;52.480;13.354;2023-08-20T08:58:37;26.40;99.90
5027;DHT22;2532;52.480;13.354;2023-08-20T09:01:04;26.60;99.90
5027;DHT22;2532;52.480;13.354;2023-08-20T09:03:31;26.70;99.90
5027;DHT22;2532;52.480;13.354;2023-08-20T09:06:00;26.70;99.70
5027;DHT22;2532;52.480;13.354;2023-08-20T09:08:30;26.90;99.60
5027;DHT22;2532;52.480;13.354;2023-08-20T09:10:58;27.00;99.40
5027;DHT22;2532;52.480;13.354;2023-08-20T09:13:32;27.10;98.60
5027;DHT22;2532;52.480;13.354;2023-08-20T09:15:59;27.20;98.30
5027;DHT22;2532;52.480;13.354;2023-08-20T09:18:29;27.30;98.30
5027;DHT22;2532;52.480;13.354;2023-08-20T09:20:57;27.30;98.30
5027;DHT22;2532;52.480;13.354;2023-08-20T09:23:28;27.30;97.70
5027;DHT22;2532;52.480;13.354;2023-08-20T09:25:56;27.40;97.70
5027;DHT22;2532;52.480;13.354;2023-08-20T09:28:23;27.40;97.50
5027;DHT22;2532;52.480;13.354;2023-08-20T09:30:57;27.40;97.40
5027;DHT22;2532;52.480;13.354;2023-08-20T09:33:27;27.40;97.30
5027;DHT22;2532;52.480;13.354;2023-08-20T09:35:54;27.50;97.40
5027;DHT22;2532;52.480;13.354;2023-08-20T09:38:24;27.50;97.10
5027;DHT22;2532;52.480;13.354;2023-08-20T09:40:53;27.50;96.90
5027;DHT22;2532;52.480;13.354;2023-08-20T09:43:24;27.60;97.00
5027;DHT22;2532;52.480;13.354;2023-08-20T09:45:54;27.70;96.70
5027;DHT22;2532;52.480;13.354;2023-08-20T09:48:22;27.90;96.20
5027;DHT22;2532;52.480;13.354;2023-08-20T09:50:52;27.90;96.10
5027;DHT22;2532;52.480;13.354;2023-08-20T09:53:26;28.00;95.90
5027;DHT22;2532;52.480;13.354;2023-08-20T09:55:56;28.10;95.50
5027;DHT22;2532;52.480;13.354;2023-08-20T09:58:30;28.10;95.30
5027;DHT22;2532;52.480;13.354;2023-08-20T10:00:58;28.10;94.90
5027;DHT22;2532;52.480;13.354;2023-08-20T10:03:25;28.10;95.00
5027;DHT22;2532;52.480;13.354;2023-08-20T10:05:53;28.20;95.20
5027;DHT22;2532;52.480;13.354;2023-08-20T10:08:20;28.20;95.00
5027;DHT22;2532;52.480;13.354;2023-08-20T10:10:47;28.30;94.70
5027;DHT22;2532;52.480;13.354;2023-08-20T10:13:16;28.40;94.70
5027;DHT22;2532;52.480;13.354;2023-08-20T10:15:45;28.40;94.20
5027;DHT22;2532;52.480;13.354;2023-08-20T10:18:12;28.40;94.20
5027;DHT22;2532;52.480;13.354;2023-08-20T10:20:39;28.40;93.90
5027;DHT22;2532;52.480;13.354;2023-08-20T10:23:07;28.40;93.20
5027;DHT22;2532;52.480;13.354;2023-08-20T10:25:41;28.50;93.40
5027;DHT22;2532;52.480;13.354;2023-08-20T10:28:13;28.50;93.50
5027;DHT22;2532;52.480;13.354;2023-08-20T10:31:06;28.50;93.20
5027;DHT22;2532;52.480;13.354;2023-08-20T10:33:34;28.50;93.30
5027;DHT22;2532;52.480;13.354;2023-08-20T10:36:09;28.50;93.30
5027;DHT22;2532;52.480;13.354;2023-08-20T10:38:37;28.60;93.10
5027;DHT22;2532;52.480;13.354;2023-08-20T10:41:07;28.70;92.80
5027;DHT22;2532;52.480;13.354;2023-08-20T10:43:37;28.70;92.60
5027;DHT22;2532;52.480;13.354;2023-08-20T10:46:07;28.80;92.60
5027;DHT22;2532;52.480;13.354;2023-08-20T10:48:38;28.80;92.40
5027;DHT22;2532;52.480;13.354;2023-08-20T10:51:09;28.90;92.40
5027;DHT22;2532;52.480;13.354;2023-08-20T10:53:37;28.90;92.20
5027;DHT22;2532;52.480;13.354;2023-08-20T10:56:11;29.00;91.80
5027;DHT22;2532;52.480;13.354;2023-08-20T10:58:42;29.00;91.90
5027;DHT22;2532;52.480;13.354;2023-08-20T11:01:15;29.10;92.00
5027;DHT22;2532;52.480;13.354;2023-08-20T11:03:43;29.10;91.80
5027;DHT22;2532;52.480;13.354;2023-08-20T11:06:11;29.10;91.80
5027;DHT22;2532;52.480;13.354;2023-08-20T11:08:39;29.20;91.90
5027;DHT22;2532;52.480;13.354;2023-08-20T11:11:07;29.20;91.80
5027;DHT22;2532;52.480;13.354;2023-08-20T11:13:35;29.30;91.60
5027;DHT22;2532;52.480;13.354;2023-08-20T11:16:02;29.30;91.30
5027;DHT22;2532;52.480;13.354;2023-08-20T11:18:32;29.40;90.90
5027;DHT22;2532;52.480;13.354;2023-08-20T11:20:59;29.40;90.40
5027;DHT22;2532;52.480;13.354;2023-08-20T11:23:27;29.40;90.60
5027;DHT22;2532;52.480;13.354;2023-08-20T11:25:56;29.50;90.70
5027;DHT22;2532;52.480;13.354;2023-08-20T11:28:25;29.50;90.40
5027;DHT22;2532;52.480;13.354;2023-08-20T11:30:53;29.50;90.10
5027;DHT22;2532;52.480;13.354;2023-08-20T11:33:21;29.50;90.00
5027;DHT22;2532;52.480;13.354;2023-08-20T11:35:49;29.50;90.10
5027;DHT22;2532;52.480;13.354;2023-08-20T11:38:17;29.60;90.10
5027;DHT22;2532;52.480;13.354;2023-08-20T11:40:43;29.60;90.10
5027;DHT22;2532;52.480;13.354;2023-08-20T11:43:10;29.60;90.00
5027;DHT22;2532;52.480;13.354;2023-08-20T11:45:46;29.60;90.50
5027;DHT22;2532;52.480;13.354;2023-08-20T11:48:13;29.60;90.00
5027;DHT22;2532;52.480;13.354;2023-08-20T11:50:40;29.60;89.90
5027;DHT22;2532;52.480;13.354;2023-08-20T11:53:09;29.60;90.00
5027;DHT22;2532;52.480;13.354;2023-08-20T11:55:38;29.60;89.00
5027;DHT22;2532;52.480;13.354;2023-08-20T11:58:08;29.70;88.80
5027;DHT22;2532;52.480;13.354;2023-08-20T12:00:36;29.80;88.00
5027;DHT22;2532;52.480;13.354;2023-08-20T12:03:03;29.80;86.80
5027;DHT22;2532;52.480;13.354;2023-08-20T12:05:31;29.70;85.80
5027;DHT22;2532;52.480;13.354;2023-08-20T12:07:59;29.80;86.10
5027;DHT22;2532;52.480;13.354;2023-08-20T12:10:30;29.90;86.10
5027;DHT22;2532;52.480;13.354;2023-08-20T12:12:58;29.90;86.30
5027;DHT22;2532;52.480;13.354;2023-08-20T12:15:25;30.00;86.20
5027;DHT22;2532;52.480;13.354;2023-08-20T12:18:00;30.00;85.50
5027;DHT22;2532;52.480;13.354;2023-08-20T12:20:31;30.00;86.00
5027;DHT22;2532;52.480;13.354;2023-08-20T12:23:02;30.10;85.70
5027;DHT22;2532;52.480;13.354;2023-08-20T12:25:32;30.20;85.10
5027;DHT22;2532;52.480;13.354;2023-08-20T12:28:01;30.20;83.80
5027;DHT22;2532;52.480;13.354;2023-08-20T12:30:29;30.20;83.80
5027;DHT22;2532;52.480;13.354;2023-08-20T12:32:56;30.30;83.80
5027;DHT22;2532;52.480;13.354;2023-08-20T12:35:23;30.30;83.20
5027;DHT22;2532;52.480;13.354;2023-08-20T12:37:50;30.30;83.40
5027;DHT22;2532;52.480;13.354;2023-08-20T12:40:17;30.40;83.90
5027;DHT22;2532;52.480;13.354;2023-08-20T12:42:45;30.50;83.90
5027;DHT22;2532;52.480;13.354;2023-08-20T12:45:12;30.50;83.70
5027;DHT22;2532;52.480;13.354;2023-08-20T12:47:39;30.60;82.10
5027;DHT22;2532;52.480;13.354;2023-08-20T12:50:06;30.60;80.70
5027;DHT22;2532;52.480;13.354;2023-08-20T12:52:34;30.60;79.50
5027;DHT22;2532;52.480;13.354;2023-08-20T12:55:01;30.60;79.00
5027;DHT22;2532;52.480;13.354;2023-08-20T12:57:28;30.60;77.80
5027;DHT22;2532;52.480;13.354;2023-08-20T12:59:57;30.60;76.40
5027;DHT22;2532;52.480;13.354;2023-08-20T13:02:25;30.70;76.20
5027;DHT22;2532;52.480;13.354;2023-08-20T13:04:52;30.80;74.80
5027;DHT22;2532;52.480;13.354;2023-08-20T13:07:20;30.80;74.70
5027;DHT22;2532;52.480;13.354;2023-08-20T13:09:47;30.80;73.90
5027;DHT22;2532;52.480;13.354;2023-08-20T13:12:17;30.90;72.00
5027;DHT22;2532;52.480;13.354;2023-08-20T13:14:46;30.90;70.90
5027;DHT22;2532;52.480;13.354;2023-08-20T13:17:15;30.90;69.70
5027;DHT22;2532;52.480;13.354;2023-08-20T13:19:42;30.90;67.80
5027;DHT22;2532;52.480;13.354;2023-08-20T13:22:10;31.00;66.10
5027;DHT22;2532;52.480;13.354;2023-08-20T13:24:39;31.00;66.70
5027;DHT22;2532;52.480;13.354;2023-08-20T13:27:06;31.10;66.70
5027;DHT22;2532;52.480;13.354;2023-08-20T13:29:34;31.30;68.20
5027;DHT22;2532;52.480;13.354;2023-08-20T13:32:01;31.30;67.50
5027;DHT22;2532;52.480;13.354;2023-08-20T13:34:31;31.40;68.40
5027;DHT22;2532;52.480;13.354;2023-08-20T13:36:58;31.50;68.10
5027;DHT22;2532;52.480;13.354;2023-08-20T13:39:25;31.50;67.60
5027;DHT22;2532;52.480;13.354;2023-08-20T13:41:52;31.60;67.70
5027;DHT22;2532;52.480;13.354;2023-08-20T13:44:20;31.60;68.00
5027;DHT22;2532;52.480;13.354;2023-08-20T13:46:47;31.50;67.50
5027;DHT22;2532;52.480;13.354;2023-08-20T13:49:14;31.40;68.20
5027;DHT22;2532;52.480;13.354;2023-08-20T13:51:42;31.40;68.10
5027;DHT22;2532;52.480;13.354;2023-08-20T13:54:09;31.30;69.40
5027;DHT22;2532;52.480;13.354;2023-08-20T13:56:36;31.30;69.30
5027;DHT22;2532;52.480;13.354;2023-08-20T13:59:03;31.30;69.80
5027;DHT22;2532;52.480;13.354;2023-08-20T14:01:30;31.30;70.20
5027;DHT22;2532;52.480;13.354;2023-08-20T14:03:57;31.40;69.60
5027;DHT22;2532;52.480;13.354;2023-08-20T14:06:24;31.30;69.40
5027;DHT22;2532;52.480;13.354;2023-08-20T14:08:52;31.30;70.20
5027;DHT22;2532;52.480;13.354;2023-08-20T14:11:19;31.30;69.90
5027;DHT22;2532;52.480;13.354;2023-08-20T14:13:47;31.20;69.70
5027;DHT22;2532;52.480;13.354;2023-08-20T14:16:14;31.20;69.20
5027;DHT22;2532;52.480;13.354;2023-08-20T14:18:41;31.20;68.10
5027;DHT22;2532;52.480;13.354;2023-08-20T14:21:08;31.10;66.80
5027;DHT22;2532;52.480;13.354;2023-08-20T14:23:38;31.10;66.40
5027;DHT22;2532;52.480;13.354;2023-08-20T14:26:16;31.00;65.70
5027;DHT22;2532;52.480;13.354;2023-08-20T14:28:43;30.90;64.50
5027;DHT22;2532;52.480;13.354;2023-08-20T14:31:10;30.90;64.40
5027;DHT22;2532;52.480;13.354;2023-08-20T14:33:39;30.90;64.20
5027;DHT22;2532;52.480;13.354;2023-08-20T14:36:06;30.80;64.10
5027;DHT22;2532;52.480;13.354;2023-08-20T14:38:33;30.80;64.60
5027;DHT22;2532;52.480;13.354;2023-08-20T14:41:00;30.70;64.90
5027;DHT22;2532;52.480;13.354;2023-08-20T14:43:29;30.70;64.40
5027;DHT22;2532;52.480;13.354;2023-08-20T14:45:56;30.60;63.90
5027;DHT22;2532;52.480;13.354;2023-08-20T14:48:24;30.60;63.50
5027;DHT22;2532;52.480;13.354;2023-08-20T14:50:51;30.50;63.70
5027;DHT22;2532;52.480;13.354;2023-08-20T14:53:18;30.50;63.80
5027;DHT22;2532;52.480;13.354;2023-08-20T14:55:46;30.40;64.00
5027;DHT22;2532;52.480;13.354;2023-08-20T14:58:13;30.40;64.20
5027;DHT22;2532;52.480;13.354;2023-08-20T15:00:41;30.40;63.90
5027;DHT22;2532;52.480;13.354;2023-08-20T15:03:08;30.40;63.80
5027;DHT22;2532;52.480;13.354;2023-08-20T15:05:36;30.50;64.10
5027;DHT22;2532;52.480;13.354;2023-08-20T15:08:03;30.50;62.70
5027;DHT22;2532;52.480;13.354;2023-08-20T15:10:31;30.50;63.20
5027;DHT22;2532;52.480;13.354;2023-08-20T15:12:57;30.40;63.70
5027;DHT22;2532;52.480;13.354;2023-08-20T15:15:24;30.40;63.90
5027;DHT22;2532;52.480;13.354;2023-08-20T15:17:55;30.40;63.20
5027;DHT22;2532;52.480;13.354;2023-08-20T15:20:22;30.50;62.30
5027;DHT22;2532;52.480;13.354;2023-08-20T15:22:49;30.50;61.80
5027;DHT22;2532;52.480;13.354;2023-08-20T15:25:16;30.60;63.00
5027;DHT22;2532;52.480;13.354;2023-08-20T15:27:44;30.80;61.80
5027;DHT22;2532;52.480;13.354;2023-08-20T15:30:11;30.90;61.80
5027;DHT22;2532;52.480;13.354;2023-08-20T15:32:38;31.10;62.20
5027;DHT22;2532;52.480;13.354;2023-08-20T15:35:07;31.20;62.20
5027;DHT22;2532;52.480;13.354;2023-08-20T15:37:34;31.50;61.40
5027;DHT22;2532;52.480;13.354;2023-08-20T15:40:01;31.70;61.00
5027;DHT22;2532;52.480;13.354;2023-08-20T15:42:31;31.90;59.70
5027;DHT22;2532;52.480;13.354;2023-08-20T15:44:59;32.10;58.30
5027;DHT22;2532;52.480;13.354;2023-08-20T15:47:26;32.20;58.00
5027;DHT22;2532;52.480;13.354;2023-08-20T15:49:53;32.30;58.40
5027;DHT22;2532;52.480;13.354;2023-08-20T15:52:21;32.30;58.20
5027;DHT22;2532;52.480;13.354;2023-08-20T15:54:48;32.30;58.00
5027;DHT22;2532;52.480;13.354;2023-08-20T15:57:15;32.30;57.80
5027;DHT22;2532;52.480;13.354;2023-08-20T15:59:42;32.20;57.40
5027;DHT22;2532;52.480;13.354;2023-08-20T16:02:09;32.20;57.30
5027;DHT22;2532;52.480;13.354;2023-08-20T16:04:37;32.20;58.00
5027;DHT22;2532;52.480;13.354;2023-08-20T16:07:05;32.30;58.60
5027;DHT22;2532;52.480;13.354;2023-08-20T16:09:34;32.50;58.10
5027;DHT22;2532;52.480;13.354;2023-08-20T16:12:01;32.60;57.70
5027;DHT22;2532;52.480;13.354;2023-08-20T16:14:28;32.90;58.00
5027;DHT22;2532;52.480;13.354;2023-08-20T16:16:55;33.00;57.10
5027;DHT22;2532;52.480;13.354;2023-08-20T16:19:21;33.10;57.50
5027;DHT22;2532;52.480;13.354;2023-08-20T16:21:49;33.20;56.70
5027;DHT22;2532;52.480;13.354;2023-08-20T16:24:16;33.40;56.70
5027;DHT22;2532;52.480;13.354;2023-08-20T16:26:44;33.40;56.00
5027;DHT22;2532;52.480;13.354;2023-08-20T16:29:11;33.50;56.10
5027;DHT22;2532;52.480;13.354;2023-08-20T16:31:38;33.60;55.70
5027;DHT22;2532;52.480;13.354;2023-08-20T16:34:04;33.80;55.70
5027;DHT22;2532;52.480;13.354;2023-08-20T16:36:31;33.80;55.50
5027;DHT22;2532;52.480;13.354;2023-08-20T16:38:58;34.00;56.00
5027;DHT22;2532;52.480;13.354;2023-08-20T16:41:25;34.20;56.40
5027;DHT22;2532;52.480;13.354;2023-08-20T16:43:53;34.40;55.90
5027;DHT22;2532;52.480;13.354;2023-08-20T16:46:20;34.50;55.90
5027;DHT22;2532;52.480;13.354;2023-08-20T16:48:47;34.60;55.90
5027;DHT22;2532;52.480;13.354;2023-08-20T16:51:14;34.80;55.90
5027;DHT22;2532;52.480;13.354;2023-08-20T16:53:41;34.70;55.50
5027;DHT22;2532;52.480;13.354;2023-08-20T16:56:08;34.50;56.30
5027;DHT22;2532;52.480;13.354;2023-08-20T16:58:35;34.40;56.40
5027;DHT22;2532;52.480;13.354;2023-08-20T17:01:03;34.40;56.20
5027;DHT22;2532;52.480;13.354;2023-08-20T17:03:30;34.30;56.70
5027;DHT22;2532;52.480;13.354;2023-08-20T17:06:00;34.30;56.90
5027;DHT22;2532;52.480;13.354;2023-08-20T17:08:28;34.20;56.80
5027;DHT22;2532;52.480;13.354;2023-08-20T17:11:02;34.20;56.50
5027;DHT22;2532;52.480;13.354;2023-08-20T17:13:30;34.20;56.50
5027;DHT22;2532;52.480;13.354;2023-08-20T17:15:57;34.20;56.90
5027;DHT22;2532;52.480;13.354;2023-08-20T17:18:25;34.20;56.70
5027;DHT22;2532;52.480;13.354;2023-08-20T17:20:52;34.20;57.00
5027;DHT22;2532;52.480;13.354;2023-08-20T17:23:19;34.20;57.00
5027;DHT22;2532;52.480;13.354;2023-08-20T17:25:47;34.10;57.00
5027;DHT22;2532;52.480;13.354;2023-08-20T17:28:14;34.00;57.30
5027;DHT22;2532;52.480;13.354;2023-08-20T17:30:41;33.90;57.40
5027;DHT22;2532;52.480;13.354;2023-08-20T17:33:07;33.80;58.00
5027;DHT22;2532;52.480;13.354;2023-08-20T17:35:42;33.70;57.90
5027;DHT22;2532;52.480;13.354;2023-08-20T17:38:10;33.50;58.20
5027;DHT22;2532;52.480;13.354;2023-08-20T17:40:37;33.50;58.40
5027;DHT22;2532;52.480;13.354;2023-08-20T17:43:04;33.30;58.50
5027;DHT22;2532;52.480;13.354;2023-08-20T17:45:34;33.10;58.60
5027;DHT22;2532;52.480;13.354;2023-08-20T17:48:01;32.60;59.20
5027;DHT22;2532;52.480;13.354;2023-08-20T17:50:28;32.20;59.80
5027;DHT22;2532;52.480;13.354;2023-08-20T17:52:56;31.80;60.30
5027;DHT22;2532;52.480;13.354;2023-08-20T17:55:23;31.40;61.20
5027;DHT22;2532;52.480;13.354;2023-08-20T17:57:50;31.00;61.70
5027;DHT22;2532;52.480;13.354;2023-08-20T18:00:17;30.80;62.10
5027;DHT22;2532;52.480;13.354;2023-08-20T18:02:44;30.50;62.70
5027;DHT22;2532;52.480;13.354;2023-08-20T18:05:10;30.30;62.60
5027;DHT22;2532;52.480;13.354;2023-08-20T18:07:38;30.10;63.70
5027;DHT22;2532;52.480;13.354;2023-08-20T18:10:07;29.90;63.30
5027;DHT22;2532;52.480;13.354;2023-08-20T18:12:34;29.80;63.60
5027;DHT22;2532;52.480;13.354;2023-08-20T18:15:01;29.70;64.00
5027;DHT22;2532;52.480;13.354;2023-08-20T18:17:28;29.50;64.00
5027;DHT22;2532;52.480;13.354;2023-08-20T18:19:55;29.40;64.40
5027;DHT22;2532;52.480;13.354;2023-08-20T18:22:22;29.40;64.70
5027;DHT22;2532;52.480;13.354;2023-08-20T18:24:49;29.30;64.90
5027;DHT22;2532;52.480;13.354;2023-08-20T18:27:17;29.20;65.00
5027;DHT22;2532;52.480;13.354;2023-08-20T18:29:44;29.20;65.20
5027;DHT22;2532;52.480;13.354;2023-08-20T18:32:11;29.10;65.50
5027;DHT22;2532;52.480;13.354;2023-08-20T18:34:38;29.00;65.50
5027;DHT22;2532;52.480;13.354;2023-08-20T18:37:05;29.00;65.70
5027;DHT22;2532;52.480;13.354;2023-08-20T18:39:33;28.90;66.70
5027;DHT22;2532;52.480;13.354;2023-08-20T18:41:59;28.90;66.10
5027;DHT22;2532;52.480;13.354;2023-08-20T18:44:28;28.80;66.30
5027;DHT22;2532;52.480;13.354;2023-08-20T18:46:55;28.80;66.50
5027;DHT22;2532;52.480;13.354;2023-08-20T18:49:22;28.80;66.80
5027;DHT22;2532;52.480;13.354;2023-08-20T18:51:49;28.80;66.90
5027;DHT22;2532;52.480;13.354;2023-08-20T18:54:16;28.70;67.20
5027;DHT22;2532;52.480;13.354;2023-08-20T18:56:42;28.80;72.80
5027;DHT22;2532;52.480;13.354;2023-08-20T18:59:09;28.80;69.40
5027;DHT22;2532;52.480;13.354;2023-08-20T19:01:38;28.90;68.30
5027;DHT22;2532;52.480;13.354;2023-08-20T19:04:05;28.90;68.70
5027;DHT22;2532;52.480;13.354;2023-08-20T19:06:33;28.90;68.70
5027;DHT22;2532;52.480;13.354;2023-08-20T19:09:00;28.90;69.20
5027;DHT22;2532;52.480;13.354;2023-08-20T19:11:30;28.90;68.40
5027;DHT22;2532;52.480;13.354;2023-08-20T19:13:57;28.90;68.80
5027;DHT22;2532;52.480;13.354;2023-08-20T19:16:24;28.80;69.30
5027;DHT22;2532;52.480;13.354;2023-08-20T19:18:52;28.90;69.50
5027;DHT22;2532;52.480;13.354;2023-08-20T19:21:19;28.90;69.60
5027;DHT22;2532;52.480;13.354;2023-08-20T19:23:46;28.80;69.40
5027;DHT22;2532;52.480;13.354;2023-08-20T19:26:14;28.80;69.80
5027;DHT22;2532;52.480;13.354;2023-08-20T19:28:40;28.80;69.80
5027;DHT22;2532;52.480;13.354;2023-08-20T19:31:07;28.80;70.20
5027;DHT22;2532;52.480;13.354;2023-08-20T19:33:34;28.80;70.10
5027;DHT22;2532;52.480;13.354;2023-08-20T19:36:03;28.70;70.00
5027;DHT22;2532;52.480;13.354;2023-08-20T19:38:30;28.70;70.30
5027;DHT22;2532;52.480;13.354;2023-08-20T19:40:57;28.60;69.90
5027;DHT22;2532;52.480;13.354;2023-08-20T19:43:24;28.70;70.20
5027;DHT22;2532;52.480;13.354;2023-08-20T19:45:53;28.60;70.20
5027;DHT22;2532;52.480;13.354;2023-08-20T19:48:20;28.60;70.30